createdAt,value
2023-05-02T00:01:16.837Z,11.70
2023-05-02T00:03:45.755Z,11.72
2023-05-02T00:06:16.240Z,11.64
2023-05-02T00:08:45.122Z,11.69
2023-05-02T00:11:14.692Z,11.45
2023-05-02T00:13:44.266Z,11.60
2023-05-02T00:16:12.994Z,11.60
2023-05-02T00:18:42.249Z,11.65
2023-05-02T00:21:11.698Z,11.58
2023-05-02T00:23:41.937Z,11.58
2023-05-02T00:26:10.973Z,11.60
2023-05-02T00:28:43.835Z,11.61
2023-05-02T00:31:12.800Z,11.66
2023-05-02T00:33:41.631Z,11.62
2023-05-02T00:36:16.031Z,11.61
2023-05-02T00:38:46.391Z,11.60
2023-05-02T00:41:15.189Z,11.55
2023-05-02T00:43:43.927Z,11.56
2023-05-02T00:46:13.588Z,11.55
2023-05-02T00:48:42.443Z,11.47
2023-05-02T00:51:12.446Z,11.50
2023-05-02T00:53:41.761Z,11.47
2023-05-02T00:56:12.070Z,11.52
2023-05-02T00:58:42.059Z,11.48
2023-05-02T01:01:26.726Z,11.43
2023-05-02T01:04:10.033Z,11.38
2023-05-02T01:06:54.949Z,11.38
2023-05-02T01:09:35.026Z,11.39
2023-05-02T01:12:08.957Z,11.34
2023-05-02T01:14:43.806Z,11.34
2023-05-02T01:17:16.456Z,11.33
2023-05-02T01:19:51.897Z,11.34
2023-05-02T01:22:23.653Z,11.28
2023-05-02T01:25:01.720Z,11.28
2023-05-02T01:27:49.327Z,11.26
2023-05-02T01:30:22.836Z,11.23
2023-05-02T01:32:53.958Z,11.14
2023-05-02T01:35:25.397Z,11.16
2023-05-02T01:37:57.361Z,11.15
2023-05-02T01:40:27.316Z,11.14
2023-05-02T01:42:58.758Z,11.13
2023-05-02T01:45:30.900Z,11.14
2023-05-02T01:48:02.303Z,11.07
2023-05-02T01:50:33.024Z,11.10
2023-05-02T01:53:04.554Z,11.07
2023-05-02T01:55:37.521Z,10.96
2023-05-02T01:58:09.110Z,11.01
2023-05-02T02:00:41.992Z,10.98
2023-05-02T02:03:13.258Z,10.90
2023-05-02T02:05:43.336Z,10.89
2023-05-02T02:08:12.172Z,10.94
2023-05-02T02:10:45.331Z,10.96
2023-05-02T02:13:19.535Z,10.98
2023-05-02T02:15:52.448Z,10.95
2023-05-02T02:18:25.475Z,10.89
2023-05-02T02:20:55.481Z,10.94
2023-05-02T02:23:28.852Z,10.95
2023-05-02T02:25:59.198Z,10.85
2023-05-02T02:28:28.091Z,10.81
2023-05-02T02:30:58.674Z,10.70
2023-05-02T02:33:32.629Z,10.63
2023-05-02T02:36:17.027Z,10.61
2023-05-02T02:38:52.348Z,10.67
2023-05-02T02:41:29.267Z,10.56
2023-05-02T02:44:06.103Z,10.48
2023-05-02T02:46:57.885Z,10.38
2023-05-02T02:49:36.415Z,10.38
2023-05-02T02:52:12.484Z,10.45
2023-05-02T02:54:47.608Z,10.48
2023-05-02T02:57:20.203Z,10.46
2023-05-02T03:00:00.045Z,10.46
2023-05-02T03:02:34.329Z,10.52
2023-05-02T03:05:06.060Z,10.54
2023-05-02T03:07:34.908Z,10.55
2023-05-02T03:10:06.088Z,10.61
2023-05-02T03:12:36.845Z,10.62
2023-05-02T03:15:26.501Z,10.58
2023-05-02T03:17:57.091Z,10.58
2023-05-02T03:20:25.933Z,10.57
2023-05-02T03:22:55.463Z,10.62
2023-05-02T03:25:25.086Z,10.58
2023-05-02T03:27:54.253Z,10.52
2023-05-02T03:30:23.058Z,10.54
2023-05-02T03:32:52.578Z,10.55
2023-05-02T03:35:23.021Z,10.50
2023-05-02T03:37:53.806Z,10.46
2023-05-02T03:40:22.666Z,10.49
2023-05-02T03:42:51.410Z,10.40
2023-05-02T03:45:26.753Z,10.34
2023-05-02T03:47:56.058Z,10.27
2023-05-02T03:50:26.546Z,10.09
2023-05-02T03:52:56.386Z,10.11
2023-05-02T03:55:34.284Z,10.11
2023-05-02T03:58:04.859Z,9.95
2023-05-02T04:00:33.765Z,9.98
2023-05-02T04:03:07.431Z,9.94
2023-05-02T04:05:40.978Z,9.95
2023-05-02T04:08:12.078Z,9.98
2023-05-02T04:10:42.068Z,9.96
2023-05-02T04:13:13.041Z,9.98
2023-05-02T04:15:46.941Z,10.03
2023-05-02T04:18:19.982Z,10.02
2023-05-02T04:20:50.407Z,10.10
2023-05-02T04:23:21.390Z,10.17
2023-05-02T04:25:55.314Z,10.24
2023-05-02T04:28:31.268Z,10.36
2023-05-02T04:31:01.398Z,10.42
2023-05-02T04:33:30.392Z,10.52
2023-05-02T04:36:01.513Z,10.65
2023-05-02T04:38:32.584Z,10.75
2023-05-02T04:41:08.598Z,10.82
2023-05-02T04:43:44.008Z,10.94
2023-05-02T04:46:15.050Z,11.03
2023-05-02T04:48:43.963Z,11.06
2023-05-02T04:51:16.773Z,11.16
2023-05-02T04:53:49.362Z,11.25
2023-05-02T04:56:18.169Z,11.28
2023-05-02T04:58:47.034Z,11.27
2023-05-02T05:01:16.584Z,11.34
2023-05-02T05:03:45.527Z,11.30
2023-05-02T05:06:16.748Z,11.42
2023-05-02T05:08:47.440Z,11.53
2023-05-02T05:11:17.802Z,11.55
2023-05-02T05:13:46.814Z,11.58
2023-05-02T05:16:16.622Z,11.63
2023-05-02T05:18:45.921Z,11.72
2023-05-02T05:21:18.474Z,11.80
2023-05-02T05:23:48.928Z,11.92
2023-05-02T05:26:26.581Z,12.04
2023-05-02T05:28:56.035Z,12.19
2023-05-02T05:31:28.007Z,12.31
2023-05-02T05:34:02.121Z,12.47
2023-05-02T05:36:33.629Z,12.63
2023-05-02T05:39:04.442Z,12.75
2023-05-02T05:41:35.556Z,12.96
2023-05-02T05:44:08.116Z,13.18
2023-05-02T05:46:37.110Z,13.31
2023-05-02T05:49:07.536Z,13.41
2023-05-02T05:51:39.228Z,13.44
2023-05-02T05:54:08.124Z,13.44
2023-05-02T05:56:37.644Z,13.43
2023-05-02T05:59:14.034Z,13.47
2023-05-02T06:01:43.057Z,13.56
2023-05-02T06:04:12.975Z,13.74
2023-05-02T06:06:46.594Z,13.91
2023-05-02T06:09:15.383Z,14.02
2023-05-02T06:11:44.210Z,14.14
2023-05-02T06:14:13.545Z,14.23
2023-05-02T06:16:42.522Z,14.28
2023-05-02T06:19:11.757Z,14.37
2023-05-02T06:21:41.526Z,14.47
2023-05-02T06:24:11.789Z,14.52
2023-05-02T06:26:40.737Z,14.59
2023-05-02T06:29:09.463Z,14.71
2023-05-02T06:31:38.358Z,14.82
2023-05-02T06:34:07.143Z,14.91
2023-05-02T06:36:36.119Z,14.96
2023-05-02T06:39:04.929Z,15.03
2023-05-02T06:41:35.130Z,15.12
2023-05-02T06:44:03.924Z,15.25
2023-05-02T06:46:32.796Z,15.50
2023-05-02T06:49:01.576Z,15.67
2023-05-02T06:51:30.318Z,15.80
2023-05-02T06:53:59.365Z,15.93
2023-05-02T06:56:28.157Z,16.06
2023-05-02T06:58:58.487Z,16.06
2023-05-02T07:01:27.307Z,16.16
2023-05-02T07:03:56.144Z,16.20
2023-05-02T07:06:26.036Z,16.24
2023-05-02T07:08:55.340Z,16.27
2023-05-02T07:11:24.353Z,16.42
2023-05-02T07:13:53.170Z,16.51
2023-05-02T07:16:23.602Z,16.61
2023-05-02T07:18:52.469Z,16.67
2023-05-02T07:21:21.355Z,16.79
2023-05-02T07:23:50.235Z,16.94
2023-05-02T07:26:20.503Z,17.06
2023-05-02T07:28:49.380Z,17.19
2023-05-02T07:31:19.025Z,17.26
2023-05-02T07:33:49.831Z,17.42
2023-05-02T07:36:19.233Z,17.49
2023-05-02T07:38:47.990Z,17.56
2023-05-02T07:41:16.948Z,17.72
2023-05-02T07:43:46.054Z,17.87
2023-05-02T07:46:14.996Z,17.88
2023-05-02T07:48:44.113Z,17.94
2023-05-02T07:51:14.796Z,18.04
2023-05-02T07:53:43.976Z,18.15
2023-05-02T07:56:13.174Z,18.27
2023-05-02T07:58:41.991Z,18.31
2023-05-02T08:01:10.759Z,18.32
2023-05-02T08:03:39.720Z,18.38
2023-05-02T08:06:10.023Z,18.39
2023-05-02T08:08:40.437Z,18.35
2023-05-02T08:11:09.275Z,18.41
2023-05-02T08:13:37.936Z,18.65
2023-05-02T08:16:06.980Z,18.96
2023-05-02T08:18:37.156Z,19.34
2023-05-02T08:21:06.568Z,19.48
2023-05-02T08:23:35.441Z,19.49
2023-05-02T08:26:05.956Z,19.53
2023-05-02T08:28:37.521Z,19.67
2023-05-02T08:31:06.532Z,19.76
2023-05-02T08:33:35.347Z,19.74
2023-05-02T08:36:12.749Z,19.71
2023-05-02T08:38:41.656Z,19.74
2023-05-02T08:41:17.084Z,19.66
2023-05-02T08:43:46.258Z,19.85
2023-05-02T08:46:16.758Z,20.02
2023-05-02T08:48:48.667Z,20.14
2023-05-02T08:53:54.246Z,20.37
2023-05-02T08:56:25.543Z,20.48
2023-05-02T08:58:54.365Z,20.67
2023-05-02T09:01:25.589Z,20.86
2023-05-02T09:03:56.350Z,20.77
2023-05-02T09:06:26.271Z,20.59
2023-05-02T09:08:54.964Z,20.64
2023-05-02T09:11:25.404Z,20.66
2023-05-02T09:13:54.523Z,20.53
2023-05-02T09:16:26.021Z,20.63
2023-05-02T09:18:56.602Z,20.83
2023-05-02T09:21:27.405Z,20.92
2023-05-02T09:23:59.291Z,21.02
2023-05-02T09:26:32.751Z,21.03
2023-05-02T09:29:03.236Z,20.99
2023-05-02T09:34:11.772Z,21.26
2023-05-02T09:36:42.284Z,21.33
2023-05-02T09:39:13.815Z,21.26
2023-05-02T09:41:45.533Z,21.33
2023-05-02T09:44:17.377Z,21.21
2023-05-02T09:46:47.426Z,21.24
2023-05-02T09:49:19.165Z,21.17
2023-05-02T09:51:49.253Z,21.24
2023-05-02T09:54:38.601Z,21.41
2023-05-02T09:57:08.860Z,21.59
2023-05-02T09:59:37.816Z,21.78
2023-05-02T10:02:10.644Z,22.00
2023-05-02T10:04:40.700Z,22.27
2023-05-02T10:07:12.241Z,22.50
2023-05-02T10:09:45.854Z,22.24
2023-05-02T10:12:18.250Z,22.19
2023-05-02T10:14:56.903Z,22.29
2023-05-02T10:17:32.393Z,22.33
2023-05-02T10:20:05.484Z,22.44
2023-05-02T10:22:35.532Z,22.53
2023-05-02T10:25:06.484Z,22.32
2023-05-02T10:27:38.143Z,22.22
2023-05-02T10:30:09.195Z,22.14
2023-05-02T10:32:39.724Z,22.33
2023-05-02T10:35:09.403Z,22.58
2023-05-02T10:37:42.381Z,22.94
2023-05-02T10:40:13.035Z,22.88
2023-05-02T10:42:47.007Z,23.12
2023-05-02T10:45:32.883Z,23.09
2023-05-02T10:48:15.786Z,23.20
2023-05-02T10:50:47.673Z,23.27
2023-05-02T10:53:28.981Z,23.24
2023-05-02T10:56:12.582Z,23.19
2023-05-02T10:58:43.538Z,22.98
2023-05-02T11:01:34.469Z,23.03
2023-05-02T11:04:05.142Z,23.20
2023-05-02T11:06:35.558Z,23.36
2023-05-02T11:09:27.112Z,23.15
2023-05-02T11:11:57.808Z,22.78
2023-05-02T11:14:57.256Z,22.70
2023-05-02T11:17:27.254Z,22.64
2023-05-02T11:20:20.826Z,22.77
2023-05-02T11:22:51.082Z,22.97
2023-05-02T11:25:32.705Z,23.15
2023-05-02T11:28:02.240Z,23.28
2023-05-02T11:30:48.984Z,23.41
2023-05-02T11:33:20.399Z,23.56
2023-05-02T11:35:50.250Z,23.90
2023-05-02T11:38:22.822Z,24.08
2023-05-02T11:40:57.821Z,23.92
2023-05-02T11:43:31.234Z,23.94
2023-05-02T11:46:03.056Z,23.83
2023-05-02T11:48:33.636Z,23.88
2023-05-02T11:51:07.567Z,24.18
2023-05-02T11:53:43.077Z,24.44
2023-05-02T11:56:12.416Z,24.46
2023-05-02T11:58:44.248Z,24.33
2023-05-02T12:01:14.971Z,24.06
2023-05-02T12:03:46.239Z,24.11
2023-05-02T12:06:19.699Z,24.17
2023-05-02T12:08:49.432Z,24.44
2023-05-02T12:11:18.459Z,24.50
2023-05-02T12:13:49.113Z,24.32
2023-05-02T12:16:18.407Z,24.18
2023-05-02T12:18:49.629Z,23.95
2023-05-02T12:21:19.110Z,23.91
2023-05-02T12:23:48.263Z,23.50
2023-05-02T12:26:20.202Z,23.67
2023-05-02T12:28:55.139Z,23.84
2023-05-02T12:31:24.644Z,23.65
2023-05-02T12:33:57.924Z,23.30
2023-05-02T12:36:28.790Z,23.36
2023-05-02T12:38:59.936Z,23.69
2023-05-02T12:41:34.723Z,23.91
2023-05-02T12:44:05.067Z,24.00
2023-05-02T12:46:33.885Z,23.99
2023-05-02T12:49:09.978Z,23.89
2023-05-02T12:51:40.245Z,23.87
2023-05-02T12:54:09.225Z,23.75
2023-05-02T12:56:41.182Z,23.71
2023-05-02T12:59:10.183Z,23.79
2023-05-02T13:01:38.950Z,23.90
2023-05-02T13:04:09.274Z,23.88
2023-05-02T13:06:38.481Z,23.96
2023-05-02T13:09:07.564Z,23.98
2023-05-02T13:11:36.775Z,23.99
2023-05-02T13:14:06.064Z,24.02
2023-05-02T13:16:36.953Z,24.18
2023-05-02T13:19:06.813Z,24.28
2023-05-02T13:21:37.168Z,24.36
2023-05-02T13:24:06.841Z,24.38
2023-05-02T13:26:35.754Z,24.57
2023-05-02T13:29:04.884Z,24.60
2023-05-02T13:31:33.742Z,24.28
2023-05-02T13:34:02.570Z,24.03
2023-05-02T13:36:31.303Z,23.90
2023-05-02T13:39:01.956Z,23.93
2023-05-02T13:41:30.894Z,24.02
2023-05-02T13:43:59.603Z,24.22
2023-05-02T13:46:28.529Z,24.19
2023-05-02T13:48:57.269Z,24.10
2023-05-02T13:51:26.028Z,24.08
2023-05-02T13:53:54.756Z,24.02
2023-05-02T13:56:25.101Z,23.98
2023-05-02T13:58:54.048Z,23.95
2023-05-02T14:01:22.919Z,23.99
2023-05-02T14:03:52.055Z,23.87
2023-05-02T14:06:20.949Z,23.72
2023-05-02T14:08:51.651Z,23.72
2023-05-02T14:11:20.727Z,23.58
2023-05-02T14:13:50.983Z,23.48
2023-05-02T14:16:19.867Z,23.38
2023-05-02T14:18:50.362Z,23.31
2023-05-02T14:21:19.521Z,23.11
2023-05-02T14:23:48.168Z,23.05
2023-05-02T14:26:17.363Z,23.05
2023-05-02T14:28:46.436Z,23.06
2023-05-02T14:31:16.806Z,22.95
2023-05-02T14:33:46.166Z,22.92
2023-05-02T14:36:14.952Z,22.84
2023-05-02T14:38:43.868Z,22.83
2023-05-02T14:41:12.623Z,22.91
2023-05-02T14:43:41.859Z,22.91
2023-05-02T14:46:10.546Z,22.66
2023-05-02T14:48:40.785Z,22.55
2023-05-02T14:51:09.757Z,22.54
2023-05-02T14:53:39.583Z,22.55
2023-05-02T14:56:15.061Z,22.46
2023-05-02T14:58:43.856Z,22.42
2023-05-02T15:01:19.305Z,22.35
2023-05-02T15:04:04.959Z,22.16
2023-05-02T15:06:35.973Z,22.11
2023-05-02T15:09:06.216Z,22.10
2023-05-02T15:11:34.628Z,22.00
2023-05-02T15:14:03.416Z,21.71
2023-05-02T15:16:32.282Z,21.50
2023-05-02T15:19:02.623Z,21.30
2023-05-02T15:21:32.502Z,21.13
2023-05-02T15:24:01.313Z,21.06
2023-05-02T15:26:30.126Z,21.01
2023-05-02T15:28:59.072Z,21.02
2023-05-02T15:31:28.183Z,21.00
2023-05-02T15:33:57.021Z,20.95
2023-05-02T15:36:30.345Z,21.00
2023-05-02T15:38:59.307Z,20.90
2023-05-02T15:41:28.124Z,20.74
2023-05-02T15:43:58.237Z,20.60
2023-05-02T15:46:27.235Z,20.61
2023-05-02T15:48:56.461Z,20.52
2023-05-02T15:51:25.160Z,20.50
2023-05-02T15:53:55.823Z,20.41
2023-05-02T15:56:25.050Z,20.35
2023-05-02T15:58:53.751Z,20.25
2023-05-02T16:01:24.318Z,20.18
2023-05-02T16:03:53.244Z,20.08
2023-05-02T16:06:22.051Z,19.96
2023-05-02T16:08:51.230Z,19.88
2023-05-02T16:11:21.469Z,19.90
2023-05-02T16:13:50.501Z,19.92
2023-05-02T16:16:19.199Z,19.97
2023-05-02T16:18:48.300Z,20.01
2023-05-02T16:21:17.024Z,19.94
2023-05-02T16:23:45.822Z,19.86
2023-05-02T16:26:14.623Z,19.80
2023-05-02T16:28:44.906Z,19.80
2023-05-02T16:31:15.224Z,19.80
2023-05-02T16:33:44.185Z,19.73
2023-05-02T16:36:14.875Z,19.71
2023-05-02T16:38:43.868Z,19.66
2023-05-02T16:41:12.581Z,19.60
2023-05-02T16:43:41.451Z,19.51
2023-05-02T16:46:11.611Z,19.48
2023-05-02T16:48:40.423Z,19.47
2023-05-02T16:51:09.205Z,19.45
2023-05-02T16:53:38.056Z,19.36
2023-05-02T16:56:07.680Z,19.27
2023-05-02T16:58:36.973Z,19.24
2023-05-02T17:01:06.320Z,19.21
2023-05-02T17:03:36.372Z,19.12
2023-05-02T17:06:05.280Z,19.12
2023-05-02T17:08:34.460Z,19.11
2023-05-02T17:11:03.132Z,19.00
2023-05-02T17:13:31.961Z,18.99
2023-05-02T17:16:01.288Z,18.88
2023-05-02T17:18:30.521Z,18.70
2023-05-02T17:21:02.717Z,18.46
2023-05-02T17:23:33.174Z,17.94
2023-05-02T17:26:01.990Z,17.31
2023-05-02T17:28:30.650Z,16.95
2023-05-02T17:30:59.581Z,16.53
2023-05-02T17:33:28.502Z,16.16
2023-05-02T17:35:57.227Z,15.85
2023-05-02T17:38:28.263Z,15.69
2023-05-02T17:40:57.427Z,15.64
2023-05-02T17:43:26.138Z,15.69
2023-05-02T17:45:55.222Z,15.67
2023-05-02T17:48:24.161Z,15.79
2023-05-02T17:50:53.720Z,15.90
2023-05-02T17:53:22.711Z,15.95
2023-05-02T17:55:52.846Z,15.96
2023-05-02T17:58:21.753Z,15.92
2023-05-02T18:00:51.539Z,15.91
2023-05-02T18:03:20.677Z,15.85
2023-05-02T18:05:49.437Z,15.84
2023-05-02T18:08:18.649Z,15.88
2023-05-02T18:10:47.729Z,15.92
2023-05-02T18:13:18.018Z,15.97
2023-05-02T18:15:49.578Z,15.99
2023-05-02T18:18:18.818Z,15.97
2023-05-02T18:20:47.499Z,15.90
2023-05-02T18:23:17.384Z,15.94
2023-05-02T18:25:46.131Z,15.91
2023-05-02T18:28:15.011Z,15.93
2023-05-02T18:30:45.165Z,15.85
2023-05-02T18:33:14.035Z,15.80
2023-05-02T18:35:48.069Z,15.77
2023-05-02T18:38:18.058Z,15.79
2023-05-02T18:40:46.995Z,15.75
2023-05-02T18:43:15.716Z,15.69
2023-05-02T18:45:48.589Z,15.67
2023-05-02T18:48:17.466Z,15.67
2023-05-02T18:50:46.637Z,15.64
2023-05-02T18:53:15.665Z,15.65
2023-05-02T18:55:44.398Z,15.58
2023-05-02T18:58:13.252Z,15.50
2023-05-02T19:00:42.060Z,15.45
2023-05-02T19:03:12.900Z,15.43
2023-05-02T19:05:44.020Z,15.39
2023-05-02T19:08:13.163Z,15.36
2023-05-02T19:10:41.850Z,15.42
2023-05-02T19:13:10.676Z,15.43
2023-05-02T19:15:39.524Z,15.42
2023-05-02T19:18:08.848Z,15.35
2023-05-02T19:20:39.188Z,15.28
2023-05-02T19:23:19.541Z,15.18
2023-05-02T19:25:49.678Z,15.13
2023-05-02T19:28:18.602Z,15.22
2023-05-02T19:30:47.487Z,15.23
2023-05-02T19:33:16.247Z,15.24
2023-05-02T19:35:48.196Z,15.18
2023-05-02T19:38:17.947Z,15.19
2023-05-02T19:40:46.506Z,15.17
2023-05-02T19:43:15.314Z,15.18
2023-05-02T19:45:44.200Z,15.19
2023-05-02T19:48:14.688Z,15.13
2023-05-02T19:50:43.936Z,15.05
2023-05-02T19:53:14.131Z,15.06
2023-05-02T19:55:42.941Z,15.13
2023-05-02T19:58:11.611Z,15.19
2023-05-02T20:00:41.547Z,15.21
2023-05-02T20:03:10.509Z,15.19
2023-05-02T20:05:39.290Z,15.18
2023-05-02T20:08:08.117Z,15.17
2023-05-02T20:10:38.563Z,15.22
2023-05-02T20:13:07.367Z,15.22
2023-05-02T20:15:36.148Z,15.13
2023-05-02T20:18:05.311Z,15.00
2023-05-02T20:20:34.141Z,14.91
2023-05-02T20:23:03.056Z,14.93
2023-05-02T20:25:31.784Z,14.94
2023-05-02T20:28:02.079Z,14.97
2023-05-02T20:30:30.845Z,15.00
2023-05-02T20:33:10.674Z,14.92
2023-05-02T20:35:44.190Z,14.81
2023-05-02T20:38:13.378Z,14.78
2023-05-02T20:40:42.763Z,14.80
2023-05-02T20:43:14.272Z,14.76
2023-05-02T20:45:43.714Z,14.69
2023-05-02T20:48:12.814Z,14.69
2023-05-02T20:50:41.642Z,14.71
2023-05-02T20:53:10.346Z,14.75
2023-05-02T20:55:39.126Z,14.81
2023-05-02T20:58:07.814Z,14.81
2023-05-02T21:00:38.027Z,14.81
2023-05-02T21:03:06.930Z,14.76
2023-05-02T21:05:35.669Z,14.69
2023-05-02T21:08:04.578Z,14.67
2023-05-02T21:10:33.268Z,14.68
2023-05-02T21:13:02.170Z,14.69
2023-05-02T21:15:30.788Z,14.61
2023-05-02T21:18:04.272Z,14.54
2023-05-02T21:20:33.235Z,14.47
2023-05-02T21:23:01.933Z,14.44
2023-05-02T21:25:30.847Z,14.38
2023-05-02T21:27:59.478Z,14.36
2023-05-02T21:30:28.178Z,14.37
2023-05-02T21:32:56.993Z,14.38
2023-05-02T21:35:27.564Z,14.35
2023-05-02T21:37:56.491Z,14.39
2023-05-02T21:40:26.227Z,14.39
2023-05-02T21:42:55.317Z,14.37
2023-05-02T21:45:24.221Z,14.38
2023-05-02T21:47:53.160Z,14.33
2023-05-02T21:50:22.344Z,14.34
2023-05-02T21:52:52.566Z,14.32
2023-05-02T21:55:21.618Z,14.27
2023-05-02T21:57:50.359Z,14.26
2023-05-02T22:00:19.842Z,14.26
2023-05-02T22:02:48.793Z,14.20
2023-05-02T22:05:18.015Z,14.19
2023-05-02T22:07:49.406Z,14.17
2023-05-02T22:10:20.108Z,14.10
2023-05-02T22:12:49.061Z,14.15
2023-05-02T22:15:17.858Z,14.13
2023-05-02T22:17:46.794Z,14.12
2023-05-02T22:20:15.670Z,14.12
2023-05-02T22:22:44.796Z,14.15
2023-05-02T22:25:13.644Z,14.13
2023-05-02T22:27:44.117Z,14.09
2023-05-02T22:30:13.340Z,14.10
2023-05-02T22:32:42.623Z,14.09
2023-05-02T22:35:12.145Z,14.07
2023-05-02T22:37:40.986Z,14.13
2023-05-02T22:40:10.798Z,14.08
2023-05-02T22:42:39.950Z,14.07
2023-05-02T22:45:12.167Z,14.06
2023-05-02T22:47:41.713Z,14.02
2023-05-02T22:50:11.412Z,13.99
2023-05-02T22:52:40.056Z,13.95
2023-05-02T22:55:10.824Z,13.92
2023-05-02T22:57:40.454Z,13.93
2023-05-02T23:00:11.477Z,13.93
2023-05-02T23:02:40.408Z,13.89
2023-05-02T23:05:10.298Z,13.89
2023-05-02T23:07:39.270Z,13.84
2023-05-02T23:10:09.582Z,13.78
2023-05-02T23:12:38.420Z,13.79
2023-05-02T23:15:08.348Z,13.79
2023-05-02T23:17:41.492Z,13.78
2023-05-02T23:20:11.692Z,13.78
2023-05-02T23:22:45.847Z,13.72
2023-05-02T23:25:17.945Z,13.76
2023-05-02T23:27:46.964Z,13.70
2023-05-02T23:30:15.855Z,13.72
2023-05-02T23:32:47.554Z,13.70
2023-05-02T23:35:16.662Z,13.72
2023-05-02T23:37:45.542Z,13.70
2023-05-02T23:40:14.611Z,13.73
2023-05-02T23:42:43.668Z,13.71
2023-05-02T23:45:13.492Z,13.65
2023-05-02T23:47:42.090Z,13.66
2023-05-02T23:50:13.093Z,13.63
2023-05-02T23:52:42.065Z,13.63
2023-05-02T23:55:11.158Z,13.61
2023-05-02T23:57:40.061Z,13.60
